KLVS

Las Vegas Municipal Airport

Las Vegas, New Mexico, USA
METAR KLVS 231053Z AUTO 18007KT 10SM OVC015 13/11 A3016 RMK AO2 SLP121 T01280106
Observed Flight Rules
May-23 @ 10:53 UTC (22 minutes ago) Marginal Visual Flight Rules
Wind Visibility Clouds
180° at 7 knots 10 miles
  • Overcast at 1,500' AGL
Temperatures Readings
Current 13°C / 55°F
Dewpoint 11°C / 52°F
Humidity 88%
Altimeter 30.16" Hg
Pressure 1012.1 hPa
Elevation 2091
METAR KLVS 231053Z AUTO 18007KT 10SM OVC015 13/11 A3016 RMK AO2 SLP121 T01280106
Observed Flight Rules
May-23 @ 10:53 UTC
(22 minutes ago)
MVFR
Wind Visibility
180° at 7 knots 10 miles
Clouds
  • Overcast at 1,500' AGL
Temperature Dewpoint
13°C / 55°F 11°C / 52°F
Humidity Altimeter Pressure
88% 30.16" Hg 1012.1 hPa